オスロ の空港の天気 - METARとTAF

オスロ空港 ( ENGM / OSL ) - ノルウェー アーケシュフース県オスロ
飛行場実況気象(Metar)
観測時間10/21 20:20 CEST (10/21 18:20 UTC)
風向・風速不定 1m/s
視程6000m
天気現象
全天を覆う雲 雲底高度 60m
気温5℃
湿度100%
気圧997hPa
METARENGM 211820Z VRB02KT 6000 RA OVC002 05/05 Q0997 TEMPO 4000 BR -DZ
過去の天気等 Google飛行場航空写真 Wunderground天気予報

過去48時間のMETAR

飛行場予報(TAF)
発表時間: -
21日20時 CEST から 確率 40% で
視程700m
天気現象
全天を覆う雲 鉛直視程 30m
22日10時 CEST ~ 22日12時 CEST に徐々に
風向・風速南 5m/s
22日8時 CEST から 確率 30% で
視程10km以上
少しの雲 雲底高度 240m
全天の8割程度の雲 雲底高度 610m
TAF ENGM 2118/2218 35005KT 4000 -RA BR OVC006
PROB40 2118/2206 0700 FG VV001
BECMG 2208/2210 18010KT
PROB30 2206/2211 9999 FEW008 BKN020